sensor_id;sensor_type;location;lat;lon;timestamp;pressure;altitude;pressure_sealevel;temperature;humidity
48035;BME280;33812;46.480;6.834;2023-02-23T00:00:50;93371.34;;;22.33;38.03
48035;BME280;33812;46.480;6.834;2023-02-23T00:04:52;93379.97;;;22.36;38.03
48035;BME280;33812;46.480;6.834;2023-02-23T00:08:54;93376.41;;;22.35;38.09
48035;BME280;33812;46.480;6.834;2023-02-23T00:12:59;93372.13;;;22.34;38.11
48035;BME280;33812;46.480;6.834;2023-02-23T00:17:05;93371.34;;;22.33;38.19
48035;BME280;33812;46.480;6.834;2023-02-23T00:21:17;93378.13;;;22.32;38.26
48035;BME280;33812;46.480;6.834;2023-02-23T00:25:19;93371.03;;;22.31;38.23
48035;BME280;33812;46.480;6.834;2023-02-23T00:29:23;93376.56;;;22.31;38.15
48035;BME280;33812;46.480;6.834;2023-02-23T00:33:25;93366.25;;;22.32;38.39
48035;BME280;33812;46.480;6.834;2023-02-23T00:37:30;93371.81;;;22.32;37.99
48035;BME280;33812;46.480;6.834;2023-02-23T00:41:32;93362.41;;;22.29;38.26
48035;BME280;33812;46.480;6.834;2023-02-23T00:45:35;93361.97;;;22.31;37.92
48035;BME280;33812;46.480;6.834;2023-02-23T00:49:40;93360.88;;;22.28;38.00
48035;BME280;33812;46.480;6.834;2023-02-23T00:53:45;93363.19;;;22.30;38.01
48035;BME280;33812;46.480;6.834;2023-02-23T00:57:47;93352.09;;;22.30;38.08
48035;BME280;33812;46.480;6.834;2023-02-23T01:01:50;93347.03;;;22.28;38.09
48035;BME280;33812;46.480;6.834;2023-02-23T01:05:51;93339.50;;;22.29;38.26
48035;BME280;33812;46.480;6.834;2023-02-23T01:09:56;93332.41;;;22.28;38.13
48035;BME280;33812;46.480;6.834;2023-02-23T01:13:59;93336.72;;;22.29;38.26
48035;BME280;33812;46.480;6.834;2023-02-23T01:18:04;93338.25;;;22.30;38.19
48035;BME280;33812;46.480;6.834;2023-02-23T01:22:07;93334.72;;;22.29;38.30
48035;BME280;33812;46.480;6.834;2023-02-23T01:26:22;93335.19;;;22.28;38.01
48035;BME280;33812;46.480;6.834;2023-02-23T01:30:24;93334.44;;;22.27;38.03
48035;BME280;33812;46.480;6.834;2023-02-23T01:34:30;93331.66;;;22.27;38.10
48035;BME280;33812;46.480;6.834;2023-02-23T01:38:34;93327.31;;;22.26;38.14
48035;BME280;33812;46.480;6.834;2023-02-23T01:42:36;93324.09;;;22.28;37.98
48035;BME280;33812;46.480;6.834;2023-02-23T01:46:44;93316.25;;;22.26;38.09
48035;BME280;33812;46.480;6.834;2023-02-23T01:50:51;93328.56;;;22.25;37.83
48035;BME280;33812;46.480;6.834;2023-02-23T01:54:55;93326.56;;;22.26;37.97
48035;BME280;33812;46.480;6.834;2023-02-23T01:59:02;93327.78;;;22.25;37.81
48035;BME280;33812;46.480;6.834;2023-02-23T02:03:09;93318.28;;;22.26;37.94
48035;BME280;33812;46.480;6.834;2023-02-23T02:07:25;93317.19;;;22.23;37.64
48035;BME280;33812;46.480;6.834;2023-02-23T02:11:29;93327.00;;;22.24;37.82
48035;BME280;33812;46.480;6.834;2023-02-23T02:15:42;93323.50;;;22.24;37.82
48035;BME280;33812;46.480;6.834;2023-02-23T02:20:30;93322.41;;;22.21;37.91
48035;BME280;33812;46.480;6.834;2023-02-23T02:25:00;93309.34;;;22.21;37.74
48035;BME280;33812;46.480;6.834;2023-02-23T02:29:40;93310.56;;;22.20;37.66
48035;BME280;33812;46.480;6.834;2023-02-23T02:34:32;93304.25;;;22.20;37.75
48035;BME280;33812;46.480;6.834;2023-02-23T02:38:52;93303.47;;;22.19;37.92
48035;BME280;33812;46.480;6.834;2023-02-23T02:43:00;93295.19;;;22.19;37.81
48035;BME280;33812;46.480;6.834;2023-02-23T02:47:14;93293.97;;;22.20;37.81
48035;BME280;33812;46.480;6.834;2023-02-23T02:51:23;93290.41;;;22.20;37.88
48035;BME280;33812;46.480;6.834;2023-02-23T02:55:33;93278.09;;;22.21;37.75
48035;BME280;33812;46.480;6.834;2023-02-23T02:59:43;93277.34;;;22.20;38.02
48035;BME280;33812;46.480;6.834;2023-02-23T03:04:18;93283.03;;;22.17;37.99
48035;BME280;33812;46.480;6.834;2023-02-23T03:08:46;93282.25;;;22.16;37.98
48035;BME280;33812;46.480;6.834;2023-02-23T03:13:19;93286.56;;;22.17;37.82
48035;BME280;33812;46.480;6.834;2023-02-23T03:17:45;93285.34;;;22.18;37.63
48035;BME280;33812;46.480;6.834;2023-02-23T03:22:13;93281.47;;;22.16;37.77
48035;BME280;33812;46.480;6.834;2023-02-23T03:26:38;93276.72;;;22.16;37.73
48035;BME280;33812;46.480;6.834;2023-02-23T03:31:07;93278.72;;;22.16;37.78
48035;BME280;33812;46.480;6.834;2023-02-23T03:35:33;93282.25;;;22.16;37.75
48035;BME280;33812;46.480;6.834;2023-02-23T03:40:03;93281.94;;;22.14;38.06
48035;BME280;33812;46.480;6.834;2023-02-23T03:44:29;93281.94;;;22.14;37.87
48035;BME280;33812;46.480;6.834;2023-02-23T03:48:53;93274.09;;;22.13;37.85
48035;BME280;33812;46.480;6.834;2023-02-23T03:53:20;93283.16;;;22.13;37.74
48035;BME280;33812;46.480;6.834;2023-02-23T03:57:44;93273.63;;;22.14;37.63
48035;BME280;33812;46.480;6.834;2023-02-23T04:02:06;93272.56;;;22.12;37.89
48035;BME280;33812;46.480;6.834;2023-02-23T04:06:32;93270.53;;;22.12;37.74
48035;BME280;33812;46.480;6.834;2023-02-23T04:10:58;93276.84;;;22.13;37.91
48035;BME280;33812;46.480;6.834;2023-02-23T04:15:26;93276.09;;;22.12;37.88
48035;BME280;33812;46.480;6.834;2023-02-23T04:19:27;93276.53;;;22.10;37.61
48035;BME280;33812;46.480;6.834;2023-02-23T04:23:32;93280.41;;;22.13;37.55
48035;BME280;33812;46.480;6.834;2023-02-23T04:27:35;93284.38;;;22.12;37.50
48035;BME280;33812;46.480;6.834;2023-02-23T04:31:37;93278.84;;;22.12;37.56
48035;BME280;33812;46.480;6.834;2023-02-23T04:35:46;93286.41;;;22.12;37.63
48035;BME280;33812;46.480;6.834;2023-02-23T04:39:50;93284.38;;;22.12;37.72
48035;BME280;33812;46.480;6.834;2023-02-23T04:43:51;93288.38;;;22.11;37.57
48035;BME280;33812;46.480;6.834;2023-02-23T04:47:54;93295.91;;;22.10;38.01
48035;BME280;33812;46.480;6.834;2023-02-23T04:51:56;93295.16;;;22.10;37.53
48035;BME280;33812;46.480;6.834;2023-02-23T04:56:03;93292.41;;;22.10;37.58
48035;BME280;33812;46.480;6.834;2023-02-23T05:00:07;93303.75;;;22.12;37.52
48035;BME280;33812;46.480;6.834;2023-02-23T05:04:10;93290.84;;;22.09;37.47
48035;BME280;33812;46.480;6.834;2023-02-23T05:08:18;93285.31;;;22.09;37.45
48035;BME280;33812;46.480;6.834;2023-02-23T05:12:24;93285.75;;;22.07;37.62
48035;BME280;33812;46.480;6.834;2023-02-23T05:16:25;93286.22;;;22.06;37.31
48035;BME280;33812;46.480;6.834;2023-02-23T05:20:29;93290.97;;;22.05;37.34
48035;BME280;33812;46.480;6.834;2023-02-23T05:24:31;93288.66;;;22.04;37.32
48035;BME280;33812;46.480;6.834;2023-02-23T05:28:38;93293.41;;;22.03;37.27
48035;BME280;33812;46.480;6.834;2023-02-23T05:32:39;93293.13;;;22.01;37.25
48035;BME280;33812;46.480;6.834;2023-02-23T05:36:41;93285.13;;;22.03;37.48
48035;BME280;33812;46.480;6.834;2023-02-23T05:40:43;93288.22;;;22.05;37.70
48035;BME280;33812;46.480;6.834;2023-02-23T05:44:48;93289.91;;;22.03;37.58
48035;BME280;33812;46.480;6.834;2023-02-23T05:48:50;93287.59;;;22.01;38.23
48035;BME280;33812;46.480;6.834;2023-02-23T05:52:57;93284.38;;;22.03;38.07
48035;BME280;33812;46.480;6.834;2023-02-23T05:56:59;93275.28;;;22.02;38.66
48035;BME280;33812;46.480;6.834;2023-02-23T06:01:02;93273.31;;;22.03;38.70
48035;BME280;33812;46.480;6.834;2023-02-23T06:05:05;93275.59;;;22.04;38.51
48035;BME280;33812;46.480;6.834;2023-02-23T06:09:07;93278.84;;;22.03;38.46
48035;BME280;33812;46.480;6.834;2023-02-23T06:13:09;93282.81;;;22.02;38.44
48035;BME280;33812;46.480;6.834;2023-02-23T06:17:12;93278.06;;;22.02;38.59
48035;BME280;33812;46.480;6.834;2023-02-23T06:21:14;93276.06;;;22.03;38.33
48035;BME280;33812;46.480;6.834;2023-02-23T06:25:15;93271.00;;;22.01;38.60
48035;BME280;33812;46.480;6.834;2023-02-23T06:29:17;93274.66;;;21.98;38.44
48035;BME280;33812;46.480;6.834;2023-02-23T06:33:21;93277.75;;;22.00;38.23
48035;BME280;33812;46.480;6.834;2023-02-23T06:37:23;93288.34;;;22.02;38.72
48035;BME280;33812;46.480;6.834;2023-02-23T06:41:25;93279.44;;;21.97;38.67
48035;BME280;33812;46.480;6.834;2023-02-23T06:45:35;93288.03;;;22.00;38.65
48035;BME280;33812;46.480;6.834;2023-02-23T06:49:38;93286.50;;;21.98;38.23
48035;BME280;33812;46.480;6.834;2023-02-23T06:53:40;93284.50;;;21.99;38.20
48035;BME280;33812;46.480;6.834;2023-02-23T06:57:42;93289.25;;;21.98;38.16
48035;BME280;33812;46.480;6.834;2023-02-23T07:02:06;93293.72;;;21.96;38.07
48035;BME280;33812;46.480;6.834;2023-02-23T07:06:10;93298.47;;;21.95;37.93
48035;BME280;33812;46.480;6.834;2023-02-23T07:10:12;93306.00;;;21.95;37.89
48035;BME280;33812;46.480;6.834;2023-02-23T07:14:14;93305.22;;;21.94;37.82
48035;BME280;33812;46.480;6.834;2023-02-23T07:18:16;93309.53;;;21.95;37.59
48035;BME280;33812;46.480;6.834;2023-02-23T07:22:19;93313.84;;;21.96;37.20
48035;BME280;33812;46.480;6.834;2023-02-23T07:26:22;93311.06;;;21.96;37.45
48035;BME280;33812;46.480;6.834;2023-02-23T07:30:24;93309.88;;;21.97;37.05
48035;BME280;33812;46.480;6.834;2023-02-23T07:34:26;93318.47;;;22.00;36.98
48035;BME280;33812;46.480;6.834;2023-02-23T07:38:29;93313.38;;;21.98;37.35
48035;BME280;33812;46.480;6.834;2023-02-23T07:42:31;93312.94;;;22.00;36.92
48035;BME280;33812;46.480;6.834;2023-02-23T07:46:33;93310.16;;;22.00;36.94
48035;BME280;33812;46.480;6.834;2023-02-23T07:50:34;93312.94;;;22.00;36.86
48035;BME280;33812;46.480;6.834;2023-02-23T07:54:37;93316.47;;;22.00;36.77
48035;BME280;33812;46.480;6.834;2023-02-23T07:58:40;93308.94;;;22.01;36.74
48035;BME280;33812;46.480;6.834;2023-02-23T08:02:44;93312.50;;;22.01;36.68
48035;BME280;33812;46.480;6.834;2023-02-23T08:06:46;93311.72;;;22.01;36.94
48035;BME280;33812;46.480;6.834;2023-02-23T08:10:49;93312.50;;;22.01;37.03
48035;BME280;33812;46.480;6.834;2023-02-23T08:14:50;93313.25;;;22.02;37.14
48035;BME280;33812;46.480;6.834;2023-02-23T08:18:53;93316.00;;;22.02;37.07
48035;BME280;33812;46.480;6.834;2023-02-23T08:22:57;93312.94;;;22.00;37.28
48035;BME280;33812;46.480;6.834;2023-02-23T08:27:01;93313.25;;;22.02;37.10
48035;BME280;33812;46.480;6.834;2023-02-23T08:31:08;93310.47;;;22.02;37.06
48035;BME280;33812;46.480;6.834;2023-02-23T08:35:10;93317.25;;;22.01;37.47
48035;BME280;33812;46.480;6.834;2023-02-23T08:39:12;93315.25;;;22.01;38.10
48035;BME280;33812;46.480;6.834;2023-02-23T08:43:15;93312.03;;;22.03;37.71
48035;BME280;33812;46.480;6.834;2023-02-23T08:47:17;93313.13;;;22.05;37.69
48035;BME280;33812;46.480;6.834;2023-02-23T08:51:21;93312.78;;;22.03;37.84
48035;BME280;33812;46.480;6.834;2023-02-23T08:55:23;93313.56;;;22.04;37.84
48035;BME280;33812;46.480;6.834;2023-02-23T08:59:26;93304.50;;;22.03;37.57
48035;BME280;33812;46.480;6.834;2023-02-23T09:03:29;93309.13;;;22.06;37.45
48035;BME280;33812;46.480;6.834;2023-02-23T09:07:31;93308.34;;;22.06;37.39
48035;BME280;33812;46.480;6.834;2023-02-23T09:11:33;93306.38;;;22.06;37.36
48035;BME280;33812;46.480;6.834;2023-02-23T09:15:37;93300.69;;;22.10;37.53
48035;BME280;33812;46.480;6.834;2023-02-23T09:19:39;93299.13;;;22.09;37.62
48035;BME280;33812;46.480;6.834;2023-02-23T09:23:41;93295.91;;;22.10;37.67
48035;BME280;33812;46.480;6.834;2023-02-23T09:27:42;93296.69;;;22.11;37.58
48035;BME280;33812;46.480;6.834;2023-02-23T09:31:46;93304.19;;;22.01;36.01
48035;BME280;33812;46.480;6.834;2023-02-23T09:35:47;93296.66;;;22.02;37.47
48035;BME280;33812;46.480;6.834;2023-02-23T09:39:49;93299.13;;;22.09;37.96
48035;BME280;33812;46.480;6.834;2023-02-23T09:43:55;93300.25;;;22.12;38.55
48035;BME280;33812;46.480;6.834;2023-02-23T09:48:14;93308.53;;;22.12;38.55
48035;BME280;33812;46.480;6.834;2023-02-23T09:52:19;93303.00;;;22.12;38.15
48035;BME280;33812;46.480;6.834;2023-02-23T09:56:30;93307.16;;;22.16;38.04
48035;BME280;33812;46.480;6.834;2023-02-23T10:00:38;93299.19;;;22.18;37.90
48035;BME280;33812;46.480;6.834;2023-02-23T10:04:47;93305.03;;;22.20;38.13
48035;BME280;33812;46.480;6.834;2023-02-23T10:09:05;93306.69;;;22.18;37.76
48035;BME280;33812;46.480;6.834;2023-02-23T10:13:15;93303.47;;;22.19;37.37
48035;BME280;33812;46.480;6.834;2023-02-23T10:17:30;93301.03;;;22.21;37.84
48035;BME280;33812;46.480;6.834;2023-02-23T10:21:38;93292.41;;;22.19;37.91
48035;BME280;33812;46.480;6.834;2023-02-23T10:25:44;93297.03;;;22.22;38.33
48035;BME280;33812;46.480;6.834;2023-02-23T10:29:48;93288.72;;;22.22;38.34
48035;BME280;33812;46.480;6.834;2023-02-23T10:33:53;93296.28;;;22.22;38.25
48035;BME280;33812;46.480;6.834;2023-02-23T10:37:59;93293.03;;;22.24;38.25
48035;BME280;33812;46.480;6.834;2023-02-23T10:42:04;93296.13;;;22.26;38.36
48035;BME280;33812;46.480;6.834;2023-02-23T10:46:11;93297.81;;;22.23;38.61
48035;BME280;33812;46.480;6.834;2023-02-23T10:50:19;93304.44;;;22.26;38.21
48035;BME280;33812;46.480;6.834;2023-02-23T10:54:41;93302.41;;;22.26;38.24
48035;BME280;33812;46.480;6.834;2023-02-23T10:58:45;93308.72;;;22.27;38.59
48035;BME280;33812;46.480;6.834;2023-02-23T11:02:47;93303.19;;;22.27;38.90
48035;BME280;33812;46.480;6.834;2023-02-23T11:06:50;93292.91;;;22.27;38.58
48035;BME280;33812;46.480;6.834;2023-02-23T11:11:03;93295.97;;;22.29;38.68
48035;BME280;33812;46.480;6.834;2023-02-23T11:15:25;93288.44;;;22.30;38.66
48035;BME280;33812;46.480;6.834;2023-02-23T11:19:32;93288.75;;;22.32;39.22
48035;BME280;33812;46.480;6.834;2023-02-23T11:23:37;93291.06;;;22.33;39.04
48035;BME280;33812;46.480;6.834;2023-02-23T11:27:45;93287.50;;;22.33;38.27
48035;BME280;33812;46.480;6.834;2023-02-23T11:31:55;93286.31;;;22.34;38.20
48035;BME280;33812;46.480;6.834;2023-02-23T11:36:00;93290.28;;;22.33;38.28
48035;BME280;33812;46.480;6.834;2023-02-23T11:40:18;93279.22;;;22.33;38.32
48035;BME280;33812;46.480;6.834;2023-02-23T11:44:22;93268.13;;;22.33;38.26
48035;BME280;33812;46.480;6.834;2023-02-23T11:48:26;93275.22;;;22.34;38.20
48035;BME280;33812;46.480;6.834;2023-02-23T11:52:28;93268.13;;;22.33;38.00
48035;BME280;33812;46.480;6.834;2023-02-23T11:56:32;93264.16;;;22.34;38.46
48035;BME280;33812;46.480;6.834;2023-02-23T12:00:35;93260.94;;;22.36;38.21
48035;BME280;33812;46.480;6.834;2023-02-23T12:04:38;93252.63;;;22.36;38.12
48035;BME280;33812;46.480;6.834;2023-02-23T12:08:49;93254.63;;;22.35;37.98
48035;BME280;33812;46.480;6.834;2023-02-23T12:13:01;93261.69;;;22.36;38.22
48035;BME280;33812;46.480;6.834;2023-02-23T12:17:13;93252.94;;;22.38;38.15
48035;BME280;33812;46.480;6.834;2023-02-23T12:21:27;93250.16;;;22.38;38.32
48035;BME280;33812;46.480;6.834;2023-02-23T12:25:34;93241.09;;;22.37;38.15
48035;BME280;33812;46.480;6.834;2023-02-23T12:29:48;93241.09;;;22.37;38.08
48035;BME280;33812;46.480;6.834;2023-02-23T12:33:58;93238.31;;;22.37;38.12
48035;BME280;33812;46.480;6.834;2023-02-23T12:38:05;93231.53;;;22.38;38.02
48035;BME280;33812;46.480;6.834;2023-02-23T12:42:14;93236.31;;;22.38;38.14
48035;BME280;33812;46.480;6.834;2023-02-23T12:46:18;93235.88;;;22.39;38.09
48035;BME280;33812;46.480;6.834;2023-02-23T12:50:27;93231.53;;;22.38;37.92
48035;BME280;33812;46.480;6.834;2023-02-23T12:54:31;93237.38;;;22.40;37.96
48035;BME280;33812;46.480;6.834;2023-02-23T12:58:38;93230.31;;;22.39;37.74
48035;BME280;33812;46.480;6.834;2023-02-23T13:02:46;93227.88;;;22.41;37.95
48035;BME280;33812;46.480;6.834;2023-02-23T13:06:55;93230.66;;;22.41;37.65
48035;BME280;33812;46.480;6.834;2023-02-23T13:11:05;93219.25;;;22.39;37.87
48035;BME280;33812;46.480;6.834;2023-02-23T13:15:19;93223.56;;;22.40;37.80
48035;BME280;33812;46.480;6.834;2023-02-23T13:19:28;93222.34;;;22.41;37.67
48035;BME280;33812;46.480;6.834;2023-02-23T13:23:37;93226.63;;;22.42;37.61
48035;BME280;33812;46.480;6.834;2023-02-23T13:27:46;93225.09;;;22.41;37.71
48035;BME280;33812;46.480;6.834;2023-02-23T13:31:50;93217.53;;;22.42;37.86
48035;BME280;33812;46.480;6.834;2023-02-23T13:35:52;93223.09;;;22.42;37.73
48035;BME280;33812;46.480;6.834;2023-02-23T13:40:00;93218.78;;;22.41;37.78
48035;BME280;33812;46.480;6.834;2023-02-23T13:44:08;93225.09;;;22.41;37.57
48035;BME280;33812;46.480;6.834;2023-02-23T13:48:19;93221.56;;;22.41;37.65
48035;BME280;33812;46.480;6.834;2023-02-23T13:52:29;93222.81;;;22.40;37.64
48035;BME280;33812;46.480;6.834;2023-02-23T13:56:41;93223.56;;;22.40;37.66
48035;BME280;33812;46.480;6.834;2023-02-23T14:00:51;93229.88;;;22.41;37.77
48035;BME280;33812;46.480;6.834;2023-02-23T14:04:56;93222.34;;;22.41;38.32
48035;BME280;33812;46.480;6.834;2023-02-23T14:09:05;93219.56;;;22.41;37.93
48035;BME280;33812;46.480;6.834;2023-02-23T14:17:40;93213.31;;;22.00;35.55
48035;BME280;33812;46.480;6.834;2023-02-23T14:21:46;93209.53;;;22.25;37.15
48035;BME280;33812;46.480;6.834;2023-02-23T14:25:52;93200.16;;;22.32;36.98
48035;BME280;33812;46.480;6.834;2023-02-23T14:30:20;93197.25;;;22.36;37.34
48035;BME280;33812;46.480;6.834;2023-02-23T14:34:45;93207.88;;;22.37;37.43
48035;BME280;33812;46.480;6.834;2023-02-23T14:38:49;93195.25;;;22.36;37.28
48035;BME280;33812;46.480;6.834;2023-02-23T14:42:56;93194.34;;;22.39;37.66
48035;BME280;33812;46.480;6.834;2023-02-23T14:47:02;93188.78;;;22.39;37.70
48035;BME280;33812;46.480;6.834;2023-02-23T14:51:19;93186.81;;;22.40;37.60
48035;BME280;33812;46.480;6.834;2023-02-23T14:55:24;93190.31;;;22.40;37.66
48035;BME280;33812;46.480;6.834;2023-02-23T15:08:25;93183.25;;;22.39;37.67
48035;BME280;33812;46.480;6.834;2023-02-23T15:12:33;93183.72;;;22.38;37.54
48035;BME280;33812;46.480;6.834;2023-02-23T15:16:38;93182.47;;;22.39;37.44
48035;BME280;33812;46.480;6.834;2023-02-23T15:20:39;93177.72;;;22.39;37.42
48035;BME280;33812;46.480;6.834;2023-02-23T15:24:47;93177.25;;;22.41;37.50
48035;BME280;33812;46.480;6.834;2023-02-23T15:28:51;93175.28;;;22.41;37.77
48035;BME280;33812;46.480;6.834;2023-02-23T15:33:00;93184.78;;;22.40;37.42
48035;BME280;33812;46.480;6.834;2023-02-23T15:37:06;93168.19;;;22.40;37.68
48035;BME280;33812;46.480;6.834;2023-02-23T15:41:17;93161.13;;;22.39;37.65
48035;BME280;33812;46.480;6.834;2023-02-23T15:45:26;93162.31;;;22.38;37.75
48035;BME280;33812;46.480;6.834;2023-02-23T15:49:35;93158.34;;;22.39;37.48
48035;BME280;33812;46.480;6.834;2023-02-23T15:53:43;93157.88;;;22.41;37.57
48035;BME280;33812;46.480;6.834;2023-02-23T15:57:52;93150.03;;;22.39;37.20
48035;BME280;33812;46.480;6.834;2023-02-23T16:01:57;93151.88;;;22.42;37.42
48035;BME280;33812;46.480;6.834;2023-02-23T16:06:04;93154.66;;;22.42;37.69
48035;BME280;33812;46.480;6.834;2023-02-23T16:10:19;93138.50;;;22.41;37.43
48035;BME280;33812;46.480;6.834;2023-02-23T16:14:27;93143.56;;;22.42;37.73
48035;BME280;33812;46.480;6.834;2023-02-23T16:18:37;93150.94;;;22.45;37.65
48035;BME280;33812;46.480;6.834;2023-02-23T16:22:40;93150.03;;;22.49;37.92
48035;BME280;33812;46.480;6.834;2023-02-23T16:26:46;93157.13;;;22.50;37.69
48035;BME280;33812;46.480;6.834;2023-02-23T16:30:59;93159.25;;;22.45;37.90
48035;BME280;33812;46.480;6.834;2023-02-23T16:35:08;93162.03;;;22.45;38.01
48035;BME280;33812;46.480;6.834;2023-02-23T16:39:18;93159.25;;;22.45;37.90
48035;BME280;33812;46.480;6.834;2023-02-23T16:43:29;93165.09;;;22.48;37.92
48035;BME280;33812;46.480;6.834;2023-02-23T16:47:42;93169.13;;;22.46;38.29
48035;BME280;33812;46.480;6.834;2023-02-23T16:51:48;93167.88;;;22.48;37.92
48035;BME280;33812;46.480;6.834;2023-02-23T16:55:52;93166.63;;;22.49;38.10
48035;BME280;33812;46.480;6.834;2023-02-23T16:59:56;93165.09;;;22.48;38.46
48035;BME280;33812;46.480;6.834;2023-02-23T17:04:10;93163.13;;;22.48;37.98
48035;BME280;33812;46.480;6.834;2023-02-23T17:08:14;93161.09;;;22.49;38.33
48035;BME280;33812;46.480;6.834;2023-02-23T17:12:16;93161.09;;;22.49;38.60
48035;BME280;33812;46.480;6.834;2023-02-23T17:16:20;93167.88;;;22.48;38.92
48035;BME280;33812;46.480;6.834;2023-02-23T17:20:25;93162.34;;;22.48;38.42
48035;BME280;33812;46.480;6.834;2023-02-23T17:24:28;93175.88;;;22.45;38.25
48035;BME280;33812;46.480;6.834;2023-02-23T17:28:30;93183.25;;;22.49;38.57
48035;BME280;33812;46.480;6.834;2023-02-23T17:32:32;93183.72;;;22.47;38.62
48035;BME280;33812;46.480;6.834;2023-02-23T17:36:38;93182.97;;;22.46;38.58
48035;BME280;33812;46.480;6.834;2023-02-23T17:40:39;93191.13;;;22.50;38.84
48035;BME280;33812;46.480;6.834;2023-02-23T17:44:47;93194.16;;;22.52;39.05
48035;BME280;33812;46.480;6.834;2023-02-23T17:48:50;93190.94;;;22.54;38.83
48035;BME280;33812;46.480;6.834;2023-02-23T17:52:54;93188.63;;;22.52;39.48
48035;BME280;33812;46.480;6.834;2023-02-23T17:56:56;93201.25;;;22.53;39.19
48035;BME280;33812;46.480;6.834;2023-02-23T18:01:01;93207.13;;;22.55;39.95
48035;BME280;33812;46.480;6.834;2023-02-23T18:05:03;93206.81;;;22.53;39.47
48035;BME280;33812;46.480;6.834;2023-02-23T18:09:06;93207.25;;;22.52;39.89
48035;BME280;33812;46.480;6.834;2023-02-23T18:13:08;93213.88;;;22.54;39.46
48035;BME280;33812;46.480;6.834;2023-02-23T18:17:10;93214.34;;;22.53;39.26
48035;BME280;33812;46.480;6.834;2023-02-23T18:21:13;93213.56;;;22.52;39.16
48035;BME280;33812;46.480;6.834;2023-02-23T18:25:24;93224.16;;;22.54;40.13
48035;BME280;33812;46.480;6.834;2023-02-23T18:29:27;93226.94;;;22.54;40.38
48035;BME280;33812;46.480;6.834;2023-02-23T18:33:29;93227.72;;;22.54;40.45
48035;BME280;33812;46.480;6.834;2023-02-23T18:37:31;93225.72;;;22.55;40.83
48035;BME280;33812;46.480;6.834;2023-02-23T18:41:34;93224.94;;;22.54;41.24
48035;BME280;33812;46.480;6.834;2023-02-23T18:45:38;93214.66;;;22.55;41.03
48035;BME280;33812;46.480;6.834;2023-02-23T18:49:39;93217.41;;;22.55;41.40
48035;BME280;33812;46.480;6.834;2023-02-23T18:53:42;93216.19;;;22.56;41.25
48035;BME280;33812;46.480;6.834;2023-02-23T18:57:46;93216.19;;;22.56;41.42
48035;BME280;33812;46.480;6.834;2023-02-23T19:01:49;93213.88;;;22.54;41.22
48035;BME280;33812;46.480;6.834;2023-02-23T19:05:52;93218.94;;;22.56;41.40
48035;BME280;33812;46.480;6.834;2023-02-23T19:09:53;93218.94;;;22.56;41.46
48035;BME280;33812;46.480;6.834;2023-02-23T19:13:58;93218.19;;;22.55;41.48
48035;BME280;33812;46.480;6.834;2023-02-23T19:18:00;93217.72;;;22.57;41.95
48035;BME280;33812;46.480;6.834;2023-02-23T19:22:03;93221.72;;;22.56;41.77
48035;BME280;33812;46.480;6.834;2023-02-23T19:26:05;93222.03;;;22.58;41.69
48035;BME280;33812;46.480;6.834;2023-02-23T19:30:10;93216.94;;;22.56;41.90
48035;BME280;33812;46.480;6.834;2023-02-23T19:34:14;93213.41;;;22.56;41.90
48035;BME280;33812;46.480;6.834;2023-02-23T19:38:16;93219.72;;;22.56;41.67
48035;BME280;33812;46.480;6.834;2023-02-23T19:42:18;93216.19;;;22.56;41.93
48035;BME280;33812;46.480;6.834;2023-02-23T19:46:21;93214.97;;;22.57;41.97
48035;BME280;33812;46.480;6.834;2023-02-23T19:50:26;93220.97;;;22.55;41.87
48035;BME280;33812;46.480;6.834;2023-02-23T19:54:28;93221.72;;;22.56;41.53
48035;BME280;33812;46.480;6.834;2023-02-23T19:58:34;93217.41;;;22.55;40.87
48035;BME280;33812;46.480;6.834;2023-02-23T20:02:49;93214.34;;;22.53;40.28
48035;BME280;33812;46.480;6.834;2023-02-23T20:06:54;93214.66;;;22.55;40.76
48035;BME280;33812;46.480;6.834;2023-02-23T20:10:55;93207.56;;;22.54;40.83
48035;BME280;33812;46.480;6.834;2023-02-23T20:14:58;93203.56;;;22.55;40.48
48035;BME280;33812;46.480;6.834;2023-02-23T20:19:01;93209.09;;;22.55;40.59
48035;BME280;33812;46.480;6.834;2023-02-23T20:23:08;93217.41;;;22.55;40.92
48035;BME280;33812;46.480;6.834;2023-02-23T20:27:09;93201.56;;;22.55;40.56
48035;BME280;33812;46.480;6.834;2023-02-23T20:31:13;93201.88;;;22.57;40.22
48035;BME280;33812;46.480;6.834;2023-02-23T20:35:17;93189.72;;;22.55;40.24
48035;BME280;33812;46.480;6.834;2023-02-23T20:39:21;93188.16;;;22.54;40.56
48035;BME280;33812;46.480;6.834;2023-02-23T20:43:23;93182.19;;;22.55;40.17
48035;BME280;33812;46.480;6.834;2023-02-23T20:47:28;93185.72;;;22.56;40.20
48035;BME280;33812;46.480;6.834;2023-02-23T20:55:36;93179.44;;;22.55;40.11
48035;BME280;33812;46.480;6.834;2023-02-23T20:59:37;93186.50;;;22.56;40.38
48035;BME280;33812;46.480;6.834;2023-02-23T21:03:41;93186.19;;;22.54;40.34
48035;BME280;33812;46.480;6.834;2023-02-23T21:07:43;93200.81;;;22.55;39.98
48035;BME280;33812;46.480;6.834;2023-02-23T21:11:50;93201.72;;;22.52;39.99
48035;BME280;33812;46.480;6.834;2023-02-23T21:15:55;93198.97;;;22.52;39.81
48035;BME280;33812;46.480;6.834;2023-02-23T21:20:01;93207.25;;;22.52;39.81
48035;BME280;33812;46.480;6.834;2023-02-23T21:24:12;93207.72;;;22.50;39.83
48035;BME280;33812;46.480;6.834;2023-02-23T21:28:20;93204.97;;;22.50;39.76
48035;BME280;33812;46.480;6.834;2023-02-23T21:32:22;93210.94;;;22.49;39.65
48035;BME280;33812;46.480;6.834;2023-02-23T21:36:33;93200.31;;;22.47;39.80
48035;BME280;33812;46.480;6.834;2023-02-23T21:40:35;93199.84;;;22.49;39.87
48035;BME280;33812;46.480;6.834;2023-02-23T21:44:48;93190.94;;;22.44;39.49
48035;BME280;33812;46.480;6.834;2023-02-23T21:48:58;93206.19;;;22.49;39.75
48035;BME280;33812;46.480;6.834;2023-02-23T21:53:03;93202.63;;;22.49;39.82
48035;BME280;33812;46.480;6.834;2023-02-23T21:57:05;93201.41;;;22.50;39.69
48035;BME280;33812;46.480;6.834;2023-02-23T22:01:13;93189.25;;;22.47;39.59
48035;BME280;33812;46.480;6.834;2023-02-23T22:05:17;93190.81;;;22.48;39.55